createdAt,value
2023-05-07T00:04:47.663Z,37.30
2023-05-07T00:09:37.664Z,37.72
2023-05-07T00:14:27.537Z,39.47
2023-05-07T00:19:17.722Z,38.03
2023-05-07T00:24:10.438Z,40.13
2023-05-07T00:29:00.276Z,38.70
2023-05-07T00:33:50.191Z,40.50
2023-05-07T00:38:40.739Z,40.22
2023-05-07T00:43:33.402Z,39.15
2023-05-07T00:48:25.472Z,37.17
2023-05-07T00:53:16.160Z,33.92
2023-05-07T00:58:08.181Z,30.77
2023-05-07T01:03:01.514Z,31.42
2023-05-07T01:07:54.113Z,27.03
2023-05-07T01:12:45.082Z,26.53
2023-05-07T01:17:37.723Z,26.02
2023-05-07T01:22:37.749Z,26.40
2023-05-07T01:27:27.978Z,26.43
2023-05-07T01:32:19.745Z,24.38
2023-05-07T01:37:09.888Z,25.93
2023-05-07T01:42:03.465Z,24.98
2023-05-07T01:46:53.823Z,23.63
2023-05-07T01:51:44.642Z,24.02
2023-05-07T01:56:35.066Z,23.48
2023-05-07T02:01:28.931Z,22.30
2023-05-07T02:06:20.881Z,21.75
2023-05-07T02:11:16.304Z,22.45
2023-05-07T02:16:06.845Z,20.08
2023-05-07T02:20:59.823Z,19.70
2023-05-07T02:25:50.585Z,18.60
2023-05-07T02:30:41.404Z,17.50
2023-05-07T02:35:32.163Z,17.20
2023-05-07T02:40:25.098Z,18.30
2023-05-07T02:45:15.627Z,17.20
2023-05-07T02:50:07.757Z,16.85
2023-05-07T02:54:57.877Z,17.17
2023-05-07T02:59:52.978Z,17.90
2023-05-07T03:04:45.190Z,18.15
2023-05-07T03:09:35.818Z,17.88
2023-05-07T03:14:25.996Z,19.25
2023-05-07T03:19:18.659Z,19.23
2023-05-07T03:24:09.654Z,18.73
2023-05-07T03:28:59.655Z,18.77
2023-05-07T03:33:56.783Z,18.38
2023-05-07T03:38:50.526Z,16.45
2023-05-07T03:43:43.981Z,17.10
2023-05-07T03:48:35.785Z,18.33
2023-05-07T03:53:25.716Z,18.40
2023-05-07T03:58:18.253Z,18.77
2023-05-07T04:03:08.893Z,18.38
2023-05-07T04:07:58.971Z,19.05
2023-05-07T04:12:58.245Z,20.63
2023-05-07T04:17:52.852Z,19.17
2023-05-07T04:22:45.578Z,19.83
2023-05-07T04:27:35.733Z,19.85
2023-05-07T04:32:26.724Z,19.17
2023-05-07T04:37:19.611Z,19.87
2023-05-07T04:42:10.099Z,18.10
2023-05-07T04:47:00.633Z,19.10
2023-05-07T04:51:50.802Z,20.70
2023-05-07T04:56:46.886Z,21.50
2023-05-07T05:01:37.197Z,21.57
2023-05-07T05:06:30.246Z,21.67
2023-05-07T05:11:20.225Z,21.90
2023-05-07T05:16:14.313Z,20.93
2023-05-07T05:21:04.920Z,21.70
2023-05-07T05:25:59.832Z,23.00
2023-05-07T05:30:52.894Z,23.38
2023-05-07T05:35:46.202Z,24.70
2023-05-07T05:40:42.399Z,25.48
2023-05-07T05:45:32.601Z,24.42
2023-05-07T05:50:23.222Z,24.77
2023-05-07T05:55:20.478Z,27.90
2023-05-07T06:00:12.403Z,25.88
2023-05-07T06:05:10.026Z,28.13
2023-05-07T06:10:00.455Z,28.70
2023-05-07T06:14:56.888Z,31.92
2023-05-07T06:19:53.226Z,35.00
2023-05-07T06:24:47.496Z,41.25
2023-05-07T06:29:37.830Z,40.42
2023-05-07T06:34:37.778Z,42.60
2023-05-07T06:39:31.735Z,44.30
2023-05-07T06:44:21.909Z,45.15
2023-05-07T06:49:22.418Z,44.10
2023-05-07T06:54:15.950Z,43.57
2023-05-07T06:59:07.835Z,44.83
2023-05-07T07:04:02.609Z,43.38
2023-05-07T07:08:55.406Z,42.23
2023-05-07T07:13:48.044Z,35.63
2023-05-07T07:18:38.296Z,34.03
2023-05-07T07:23:28.359Z,33.88
2023-05-07T07:28:18.595Z,36.47
2023-05-07T07:33:11.289Z,37.60
2023-05-07T07:38:03.406Z,36.95
2023-05-07T07:42:53.788Z,37.27
2023-05-07T07:47:44.400Z,38.42
2023-05-07T07:52:37.604Z,34.63
2023-05-07T07:57:28.029Z,35.75
2023-05-07T08:02:18.825Z,35.08
2023-05-07T08:07:09.221Z,35.53
2023-05-07T08:12:05.527Z,38.90
2023-05-07T08:16:57.059Z,34.47
2023-05-07T08:21:48.822Z,35.53
2023-05-07T08:26:40.600Z,34.05
2023-05-07T08:46:10.180Z,27.55
2023-05-07T08:55:57.288Z,25.83
2023-05-07T09:00:47.764Z,25.27
2023-05-07T09:05:38.278Z,21.92
2023-05-07T09:10:36.511Z,17.05
2023-05-07T09:49:37.322Z,14.00
2023-05-07T09:54:32.288Z,13.90
2023-05-07T10:04:13.823Z,10.25
2023-05-07T10:09:09.351Z,13.02
2023-05-07T10:14:01.425Z,13.13
2023-05-07T10:18:54.466Z,11.30
2023-05-07T10:23:49.533Z,9.73
2023-05-07T10:28:47.192Z,11.02
2023-05-07T13:11:43.077Z,15.70
2023-05-07T13:16:33.444Z,13.15
2023-05-07T13:21:26.153Z,12.98
2023-05-07T13:26:26.357Z,15.35
2023-05-07T13:31:17.304Z,14.15
2023-05-07T13:36:08.326Z,14.80
2023-05-07T13:41:01.046Z,16.25
2023-05-07T13:45:53.352Z,16.42
2023-05-07T13:50:45.661Z,17.42
2023-05-07T13:55:37.558Z,18.23
2023-05-07T14:00:33.805Z,20.13
2023-05-07T14:05:30.656Z,20.63
2023-05-07T14:10:25.155Z,24.38
2023-05-07T14:15:19.910Z,27.13
2023-05-07T14:20:14.637Z,33.77
2023-05-07T14:25:14.736Z,36.20
2023-05-07T14:30:16.487Z,29.35
2023-05-07T14:35:06.594Z,25.65
2023-05-07T14:39:59.164Z,26.42
2023-05-07T14:44:59.109Z,27.25
2023-05-07T14:49:51.654Z,27.73
2023-05-07T14:54:42.287Z,26.58
2023-05-07T14:59:35.090Z,26.10
2023-05-07T15:04:27.592Z,24.77
2023-05-07T15:09:17.569Z,26.92
2023-05-07T15:14:08.575Z,26.05
2023-05-07T15:19:01.185Z,28.23
2023-05-07T15:23:52.355Z,25.30
2023-05-07T15:28:42.430Z,26.70
2023-05-07T15:33:32.360Z,28.63
2023-05-07T15:43:15.372Z,24.52
2023-05-07T15:48:05.357Z,26.35
2023-05-07T15:52:55.570Z,25.10
2023-05-07T16:22:01.311Z,23.05
2023-05-07T16:26:51.150Z,20.80
2023-05-07T16:31:41.163Z,21.90
2023-05-07T16:36:33.826Z,22.23
2023-05-07T16:41:24.131Z,20.80
2023-05-07T16:46:14.184Z,20.73
2023-05-07T16:51:04.199Z,20.38
2023-05-07T16:55:56.839Z,19.80
2023-05-07T17:00:50.733Z,25.88
2023-05-07T17:05:41.537Z,23.42
2023-05-07T17:10:31.424Z,24.65
2023-05-07T17:15:26.734Z,23.10
2023-05-07T17:20:17.444Z,23.55
2023-05-07T17:25:08.174Z,21.58
2023-05-07T17:29:58.799Z,22.40
2023-05-07T17:34:51.638Z,27.23
2023-05-07T17:39:41.497Z,27.10
2023-05-07T17:44:31.518Z,30.93
2023-05-07T17:49:27.353Z,31.90
2023-05-07T17:54:20.088Z,31.80
2023-05-07T17:59:09.972Z,30.13
2023-05-07T18:04:00.677Z,29.63
2023-05-07T18:08:51.093Z,28.30
2023-05-07T18:13:44.850Z,26.70
2023-05-07T18:18:37.774Z,27.45
2023-05-07T18:23:27.951Z,25.77
2023-05-07T18:28:18.209Z,25.13
2023-05-07T18:33:10.743Z,22.92
2023-05-07T18:38:00.863Z,24.40
2023-05-07T18:42:50.884Z,24.42
2023-05-07T18:47:41.115Z,22.75
2023-05-07T18:52:33.919Z,22.65
2023-05-07T18:57:24.974Z,20.35
2023-05-07T19:02:16.910Z,19.75
2023-05-07T19:07:08.909Z,20.02
2023-05-07T19:12:03.761Z,22.00
2023-05-07T19:16:55.339Z,22.20
2023-05-07T19:21:45.337Z,20.52
2023-05-07T19:26:35.454Z,17.23
2023-05-07T19:31:33.023Z,15.50
2023-05-07T19:36:24.031Z,16.23
2023-05-07T19:41:14.711Z,17.60
2023-05-07T19:46:04.693Z,17.55
2023-05-07T19:50:57.385Z,19.00
2023-05-07T19:55:47.452Z,21.67
2023-05-07T20:00:37.801Z,19.77
2023-05-07T20:05:28.397Z,21.30
2023-05-07T20:10:21.416Z,19.48
2023-05-07T20:15:13.181Z,24.00
2023-05-07T20:20:04.044Z,21.52
2023-05-07T20:24:53.992Z,26.57
2023-05-07T20:29:46.410Z,30.27
2023-05-07T20:34:36.512Z,29.35
2023-05-07T20:39:27.010Z,31.38
2023-05-07T20:44:17.441Z,33.07
2023-05-07T20:49:09.914Z,33.33
2023-05-07T20:53:59.736Z,34.08
2023-05-07T20:58:49.672Z,31.67
2023-05-07T21:03:46.156Z,35.58
2023-05-07T21:08:38.800Z,36.93
2023-05-07T21:13:28.699Z,39.30
2023-05-07T21:18:19.108Z,36.80
2023-05-07T21:23:08.957Z,33.03
2023-05-07T21:28:01.506Z,32.55
2023-05-07T21:32:54.203Z,36.00
2023-05-07T21:37:46.509Z,34.30
2023-05-07T21:42:36.428Z,33.08
2023-05-07T21:47:29.081Z,32.13
2023-05-07T21:52:20.908Z,34.17
2023-05-07T21:57:11.331Z,38.75
2023-05-07T22:02:01.364Z,39.58
2023-05-07T22:06:53.976Z,34.13
2023-05-07T22:11:43.910Z,34.33
2023-05-07T22:16:33.782Z,33.10
2023-05-07T22:21:23.789Z,34.30
2023-05-07T22:26:17.008Z,36.95
2023-05-07T22:31:06.899Z,34.13
2023-05-07T22:35:56.793Z,38.28
2023-05-07T22:40:46.670Z,38.40
2023-05-07T22:45:39.373Z,34.58
2023-05-07T22:50:29.249Z,40.42
2023-05-07T22:55:19.288Z,35.80
2023-05-07T23:00:11.082Z,35.15
2023-05-07T23:05:04.640Z,36.03
2023-05-07T23:09:54.518Z,33.95
2023-05-07T23:14:44.273Z,33.88
2023-05-07T23:19:34.178Z,38.10
2023-05-07T23:24:26.776Z,36.00
2023-05-07T23:29:19.049Z,35.47
2023-05-07T23:34:08.968Z,32.30
2023-05-07T23:38:58.875Z,33.88
2023-05-07T23:43:51.562Z,33.90
2023-05-07T23:48:43.231Z,35.45
2023-05-07T23:53:33.421Z,38.20
2023-05-07T23:58:23.342Z,37.47
